Time;durP1;ratioP1;P1;durP2;ratioP2;P2;SDS_P1;SDS_P2;PMS_P1;PMS_P2;Temp;Humidity;BMP_temperature;BMP_pressure;BME280_temperature;BME280_humidity;BME280_pressure;Samples;Min_cycle;Max_cycle;Signal;HPM_P1;HPM_P2
2023/06/12 00:01:50;;;;;;;4.60;1.10;;;;;;;12.04;87.43;100436.00;1641623;87;21020;-61
2023/06/12 00:04:18;;;;;;;2.50;1.37;;;;;;;12.07;87.30;100438.33;1674486;86;21051;-61
2023/06/12 00:06:48;;;;;;;4.83;1.20;;;;;;;12.09;87.20;100423.87;1641877;87;21104;-64
2023/06/12 00:09:17;;;;;;;2.58;1.22;;;;;;;12.10;86.74;100425.56;1655384;86;21067;-62
2023/06/12 00:11:47;;;;;;;8.48;1.65;;;;;;;12.08;86.32;100419.42;1641662;86;21060;-61
2023/06/12 00:14:16;;;;;;;1.70;1.40;;;;;;;12.09;86.13;100423.87;1674765;86;21060;-61
2023/06/12 00:16:47;;;;;;;2.35;1.30;;;;;;;12.08;86.09;100415.83;1674762;86;21040;-62
2023/06/12 00:19:18;;;;;;;4.22;1.40;;;;;;;12.07;85.99;100419.11;1638884;87;21060;-61
2023/06/12 00:21:47;;;;;;;1.50;1.22;;;;;;;12.08;85.92;100416.68;1667089;86;21079;-61
2023/06/12 00:24:15;;;;;;;5.08;1.50;;;;;;;12.10;85.88;100420.59;1592735;90;21057;-62
2023/06/12 00:26:44;;;;;;;3.20;1.40;;;;;;;12.11;85.89;100418.17;1588407;89;21070;-62
2023/06/12 00:29:14;;;;;;;3.60;1.27;;;;;;;12.09;85.32;100417.00;1590335;90;21113;-61
2023/06/12 00:31:42;;;;;;;4.22;1.40;;;;;;;12.10;85.39;100422.81;1588345;90;21018;-62
2023/06/12 00:34:11;;;;;;;4.62;1.70;;;;;;;12.11;84.92;100414.89;1587851;89;21118;-62
2023/06/12 00:36:40;;;;;;;2.33;1.17;;;;;;;12.10;84.85;100415.95;1564365;90;21116;-62
2023/06/12 00:39:08;;;;;;;6.87;1.52;;;;;;;12.09;84.90;100414.25;1639598;87;21112;-62
2023/06/12 00:41:38;;;;;;;1.87;1.50;;;;;;;12.10;84.76;100413.20;1599195;89;21052;-62
2023/06/12 00:44:06;;;;;;;3.65;1.40;;;;;;;12.10;84.69;100415.95;1590808;90;21062;-62
2023/06/12 00:46:35;;;;;;;2.47;1.40;;;;;;;12.12;84.44;100409.72;1590528;90;21137;-61
2023/06/12 00:49:04;;;;;;;2.65;1.40;;;;;;;12.06;83.75;100411.92;1590202;90;21066;-61
2023/06/12 00:51:33;;;;;;;3.85;1.50;;;;;;;12.00;83.70;100408.11;1590245;90;21158;-60
2023/06/12 00:54:02;;;;;;;3.15;1.40;;;;;;;11.99;83.86;100402.82;1599582;89;21092;-62
2023/06/12 00:56:32;;;;;;;2.45;1.25;;;;;;;11.99;83.98;100400.08;1599640;89;21114;-61
2023/06/12 00:59:02;;;;;;;2.42;1.47;;;;;;;12.00;84.16;100401.77;1600090;89;21067;-63
2023/06/12 01:01:30;;;;;;;3.30;1.37;;;;;;;12.02;83.96;100396.91;1597891;89;21116;-61
2023/06/12 01:03:58;;;;;;;3.92;1.30;;;;;;;12.06;84.18;100400.41;1598330;89;21108;-61
2023/06/12 01:06:54;;;;;;;4.97;1.20;;;;;;;12.06;84.08;100403.69;1599640;89;21526;-62
2023/06/12 01:09:54;;;;;;;2.50;1.30;;;;;;;12.06;83.88;100403.69;1597948;89;21076;-62
2023/06/12 01:12:23;;;;;;;2.62;1.45;;;;;;;12.06;83.76;100405.91;1598135;90;21107;-61
2023/06/12 01:14:51;;;;;;;2.27;1.37;;;;;;;12.06;83.72;100404.53;1597859;90;21099;-61
2023/06/12 01:17:20;;;;;;;5.15;1.45;;;;;;;12.08;83.76;100402.10;1629847;88;21056;-62
2023/06/12 01:19:50;;;;;;;5.20;1.50;;;;;;;12.10;83.82;100409.08;1591155;89;21520;-62
2023/06/12 01:22:20;;;;;;;2.02;1.25;;;;;;;12.11;83.74;100406.66;1592080;89;21506;-63
2023/06/12 01:25:19;;;;;;;2.75;1.20;;;;;;;12.11;83.70;100408.02;1618918;89;21058;-61
2023/06/12 01:28:05;;;;;;;9.05;1.40;;;;;;;12.09;83.50;100403.27;1565884;90;21120;-62
2023/06/12 01:30:54;;;;;;;4.03;1.57;;;;;;;12.08;83.66;100405.70;1606310;89;21097;-60
2023/06/12 01:33:33;;;;;;;3.65;1.42;;;;;;;12.09;83.51;100407.39;1618878;89;21088;-62
2023/06/12 01:36:01;;;;;;;1.82;1.20;;;;;;;12.09;83.41;100405.16;1618785;89;21106;-61
2023/06/12 01:38:32;;;;;;;3.62;1.57;;;;;;;12.09;83.39;100401.89;1618746;88;21109;-61
2023/06/12 01:41:01;;;;;;;2.45;1.40;;;;;;;12.10;83.29;100404.11;1618885;88;21106;-61
2023/06/12 01:43:31;;;;;;;2.42;1.17;;;;;;;12.10;83.20;100400.84;1598919;89;21173;-61
2023/06/12 01:46:00;;;;;;;2.98;1.30;;;;;;;12.10;82.95;100402.22;1599537;89;21609;-62
2023/06/12 01:48:30;;;;;;;3.70;1.15;;;;;;;12.11;83.05;100403.06;1617932;89;21490;-61
2023/06/12 01:50:58;;;;;;;2.90;1.20;;;;;;;12.13;82.90;100407.29;1618727;89;21097;-62
2023/06/12 01:53:27;;;;;;;3.40;1.32;;;;;;;12.15;82.65;100402.44;1618931;88;21041;-62
2023/06/12 01:55:56;;;;;;;1.50;1.10;;;;;;;12.13;82.31;100400.42;1618617;89;21057;-61
2023/06/12 01:58:27;;;;;;;3.10;1.30;;;;;;;12.12;82.32;100406.13;1618722;88;21077;-61
2023/06/12 02:01:03;;;;;;;3.45;1.30;;;;;;;12.10;82.11;100399.47;1561479;89;21244;-62
2023/06/12 02:03:36;;;;;;;4.83;1.30;;;;;;;12.12;82.31;100406.13;1618768;89;21101;-61
2023/06/12 02:06:04;;;;;;;3.27;1.30;;;;;;;12.11;81.95;100400.31;1619634;88;21109;-61
2023/06/12 02:08:32;;;;;;;4.83;1.22;;;;;;;12.13;82.20;100396.30;1618525;89;21117;-61
2023/06/12 02:11:01;;;;;;;2.47;1.27;;;;;;;12.15;81.86;100399.69;1618684;89;21074;-62
2023/06/12 02:13:33;;;;;;;6.05;1.25;;;;;;;12.15;81.86;100392.82;1618637;88;21073;-61
2023/06/12 02:16:03;;;;;;;3.55;1.20;;;;;;;12.15;81.86;100390.08;1598899;89;21077;-61
2023/06/12 02:18:32;;;;;;;4.78;1.30;;;;;;;12.16;81.71;100397.27;1618678;89;21077;-61
2023/06/12 02:21:00;;;;;;;2.67;1.30;;;;;;;12.17;81.25;100393.98;1618693;88;21066;-61
2023/06/12 02:23:29;;;;;;;2.00;1.10;;;;;;;12.18;81.25;100393.78;1618410;88;21082;-61
2023/06/12 02:25:58;;;;;;;3.72;1.30;;;;;;;12.20;81.44;100391.67;1614145;89;21069;-62
2023/06/12 02:28:26;;;;;;;2.75;1.17;;;;;;;12.23;81.46;100400.02;1618737;89;21066;-62
2023/06/12 02:30:56;;;;;;;6.15;1.62;;;;;;;12.22;81.17;100396.42;1618688;89;21097;-62
2023/06/12 02:33:27;;;;;;;3.25;1.20;;;;;;;12.22;81.38;100396.42;1600092;89;21086;-62
2023/06/12 02:35:57;;;;;;;5.17;1.20;;;;;;;12.26;81.38;100395.48;1622855;86;21022;-63
2023/06/12 02:38:27;;;;;;;3.42;1.40;;;;;;;12.26;81.21;100397.70;1677798;86;21028;-60
2023/06/12 02:40:58;;;;;;;2.30;1.45;;;;;;;12.25;80.88;100398.75;1676988;85;21075;-63
2023/06/12 02:43:27;;;;;;;2.85;1.30;;;;;;;12.25;80.96;100391.05;1674953;86;21028;-62
2023/06/12 02:45:56;;;;;;;1.95;1.12;;;;;;;12.28;80.88;100394.75;1675108;86;21031;-62
2023/06/12 02:48:26;;;;;;;2.15;1.40;;;;;;;12.31;80.96;100399.83;1641719;87;21546;-62
2023/06/12 02:50:55;;;;;;;5.90;1.50;;;;;;;12.34;80.92;100401.62;1674777;86;21482;-62
2023/06/12 02:53:25;;;;;;;1.72;1.15;;;;;;;12.35;80.77;100403.34;1674842;86;21047;-62
2023/06/12 02:55:54;;;;;;;4.28;1.42;;;;;;;12.38;80.67;100401.55;1675030;85;21083;-61
2023/06/12 02:58:24;;;;;;;2.90;1.30;;;;;;;12.37;80.44;100394.38;1641563;87;21059;-61
2023/06/12 03:00:52;;;;;;;3.15;1.10;;;;;;;12.38;80.51;100389.72;1674184;86;20996;-63
2023/06/12 03:03:21;;;;;;;3.90;1.30;;;;;;;12.42;80.50;100397.86;1641764;87;21127;-61
2023/06/12 03:05:49;;;;;;;3.77;1.40;;;;;;;12.44;80.25;100393.00;1674594;86;21060;-62
2023/06/12 03:08:18;;;;;;;1.80;1.10;;;;;;;12.45;79.76;100392.47;1674909;86;21028;-61
2023/06/12 03:10:48;;;;;;;4.47;1.35;;;;;;;12.47;79.49;100395.86;1674684;85;21080;-61
2023/06/12 03:13:17;;;;;;;4.10;1.42;;;;;;;12.46;79.66;100389.52;1638258;87;21498;-61
2023/06/12 03:15:46;;;;;;;5.12;1.37;;;;;;;12.48;79.70;100388.77;1670517;85;21520;-62
2023/06/12 03:18:16;;;;;;;4.70;1.12;;;;;;;12.53;79.65;100395.02;1640927;87;21119;-62
2023/06/12 03:20:44;;;;;;;9.55;2.30;;;;;;;12.54;79.44;100390.68;1673971;86;21490;-61
2023/06/12 03:23:13;;;;;;;4.67;1.20;;;;;;;12.57;79.56;100389.41;1630247;87;21698;-61
2023/06/12 03:25:41;;;;;;;1.80;1.25;;;;;;;12.62;79.57;100391.84;1643777;87;21101;-63
2023/06/12 03:28:11;;;;;;;2.95;1.35;;;;;;;12.67;78.88;100382.97;1643977;87;21085;-63
2023/06/12 03:30:39;;;;;;;3.95;1.32;;;;;;;12.68;78.87;100383.28;1644116;87;21061;-61
2023/06/12 03:33:09;;;;;;;4.60;1.87;;;;;;;12.72;78.93;100385.92;1644217;87;21132;-62
2023/06/12 03:35:40;;;;;;;5.70;1.30;;;;;;;12.78;78.90;100391.95;1644014;87;21049;-63
2023/06/12 03:38:08;;;;;;;3.22;1.30;;;;;;;12.83;78.59;100385.28;1643907;87;21125;-61
2023/06/12 03:40:38;;;;;;;3.77;1.40;;;;;;;12.87;78.23;100379.67;1643685;87;21105;-62
2023/06/12 03:43:06;;;;;;;3.87;1.60;;;;;;;12.92;77.64;100380.41;1643850;87;21574;-61
2023/06/12 03:45:35;;;;;;;1.80;1.20;;;;;;;12.95;77.40;100375.32;1644068;87;21053;-62
2023/06/12 03:48:06;;;;;;;5.67;1.62;;;;;;;13.00;77.25;100382.44;1644304;87;21494;-61
2023/06/12 03:50:34;;;;;;;1.95;1.47;;;;;;;13.07;77.05;100385.17;1644314;87;21535;-61
2023/06/12 03:53:03;;;;;;;2.72;1.30;;;;;;;13.12;77.13;100383.16;1643826;87;21207;-62
2023/06/12 03:55:34;;;;;;;4.35;1.52;;;;;;;13.15;76.24;100388.23;1643900;86;21049;-61
2023/06/12 03:58:04;;;;;;;3.25;1.40;;;;;;;13.14;76.12;100389.28;1643871;87;21056;-61
2023/06/12 04:00:32;;;;;;;4.33;1.50;;;;;;;13.19;76.42;100382.64;1643977;87;21551;-62
2023/06/12 04:03:08;;;;;;;7.20;2.02;;;;;;;13.26;76.13;100379.34;1643920;87;21196;-62
2023/06/12 04:05:38;;;;;;;4.15;1.32;;;;;;;13.32;75.87;100386.73;1644041;87;21515;-63
2023/06/12 04:08:06;;;;;;;2.22;1.32;;;;;;;13.34;75.21;100391.49;1644174;86;21104;-62
2023/06/12 04:10:39;;;;;;;4.17;1.65;;;;;;;13.43;75.38;100390.72;1643870;86;21050;-61
2023/06/12 04:13:07;;;;;;;2.22;1.45;;;;;;;13.48;74.83;100398.64;1643828;86;21098;-61
2023/06/12 04:15:37;;;;;;;2.00;1.50;;;;;;;13.52;74.70;100397.15;1642370;87;21085;-63
2023/06/12 04:18:07;;;;;;;3.77;1.50;;;;;;;13.53;73.91;100390.58;1643765;87;21085;-63
2023/06/12 04:20:38;;;;;;;5.72;1.30;;;;;;;13.53;73.42;100407.09;1643852;87;21077;-62
2023/06/12 04:23:11;;;;;;;2.52;1.40;;;;;;;13.54;73.43;100392.27;1643067;85;21079;-61
2023/06/12 04:25:38;;;;;;;4.28;1.52;;;;;;;13.59;73.66;100402.09;1639259;87;21078;-62
2023/06/12 04:28:08;;;;;;;3.70;1.20;;;;;;;13.61;73.33;100399.97;1600006;89;21056;-65
2023/06/12 04:30:36;;;;;;;2.90;1.45;;;;;;;13.62;73.07;100406.33;1591167;89;21128;-63
2023/06/12 04:33:06;;;;;;;2.45;1.15;;;;;;;13.64;72.70;100409.70;1590752;89;21706;-61
2023/06/12 04:35:36;;;;;;;2.58;1.60;;;;;;;13.64;72.53;100406.42;1591787;89;21538;-62
2023/06/12 04:38:05;;;;;;;4.92;1.60;;;;;;;13.67;72.31;100412.59;1591238;89;21125;-62
2023/06/12 04:40:36;;;;;;;3.37;1.40;;;;;;;13.68;72.34;100407.39;1597870;90;21091;-62
2023/06/12 04:43:05;;;;;;;2.33;1.32;;;;;;;13.70;72.18;100408.87;1597805;90;21080;-61
2023/06/12 04:45:35;;;;;;;6.17;1.70;;;;;;;13.71;71.61;100411.94;1629513;88;21068;-62
2023/06/12 04:48:04;;;;;;;2.33;1.50;;;;;;;13.73;71.72;100414.47;1591727;90;21245;-61
2023/06/12 04:50:33;;;;;;;6.40;1.70;;;;;;;13.77;71.52;100417.09;1590821;90;21102;-62
2023/06/12 04:53:01;;;;;;;5.47;1.87;;;;;;;13.78;71.39;100413.28;1590483;90;21489;-62
2023/06/12 04:55:30;;;;;;;3.58;1.35;;;;;;;13.80;71.39;100416.13;1590379;90;21066;-61
2023/06/12 04:57:59;;;;;;;1.95;1.30;;;;;;;13.85;71.30;100426.49;1590185;90;21479;-62
2023/06/12 05:00:28;;;;;;;6.45;1.80;;;;;;;13.84;70.88;100420.67;1590191;89;21099;-62
2023/06/12 05:02:59;;;;;;;2.37;1.52;;;;;;;13.86;70.90;100418.55;1600580;89;21096;-62
2023/06/12 05:05:27;;;;;;;7.47;1.40;;;;;;;13.85;70.63;100422.36;1598941;89;21036;-60
2023/06/12 05:07:57;;;;;;;5.67;1.70;;;;;;;13.84;70.87;100423.42;1590459;90;21522;-62
2023/06/12 05:10:26;;;;;;;3.05;1.50;;;;;;;13.88;71.05;100421.92;1590372;90;21217;-60
2023/06/12 05:12:55;;;;;;;7.15;1.70;;;;;;;13.89;70.63;100424.46;1590180;90;21061;-61
2023/06/12 05:15:24;;;;;;;3.10;1.50;;;;;;;13.91;70.76;100421.48;1591132;90;21281;-61
2023/06/12 05:17:53;;;;;;;4.53;1.60;;;;;;;13.94;70.43;100425.17;1590230;90;21089;-62
2023/06/12 05:20:22;;;;;;;4.80;1.80;;;;;;;13.91;69.88;100425.09;1598691;88;21088;-62
2023/06/12 05:22:51;;;;;;;5.35;2.20;;;;;;;13.91;70.47;100426.99;1599865;88;21033;-63
2023/06/12 05:25:20;;;;;;;5.72;1.57;;;;;;;13.95;70.88;100426.87;1657553;85;22072;-63
2023/06/12 05:27:49;;;;;;;4.90;1.50;;;;;;;14.03;70.94;100429.91;1658656;84;21056;-62
2023/06/12 05:30:19;;;;;;;3.65;2.00;;;;;;;14.08;70.36;100435.06;1658442;86;21100;-62
2023/06/12 05:32:50;;;;;;;6.72;1.80;;;;;;;14.11;70.15;100429.12;1658038;85;21041;-64
2023/06/12 05:35:19;;;;;;;3.55;1.67;;;;;;;14.12;69.92;100429.42;1657986;86;21489;-64
2023/06/12 05:37:48;;;;;;;7.15;1.72;;;;;;;14.16;69.56;100418.81;1636864;86;21073;-63
2023/06/12 05:40:17;;;;;;;5.15;1.82;;;;;;;14.17;69.69;100421.34;1658423;86;21084;-62
2023/06/12 05:42:46;;;;;;;2.67;1.62;;;;;;;14.21;69.38;100420.37;1658707;86;21021;-62
2023/06/12 05:45:15;;;;;;;7.97;2.30;;;;;;;14.21;69.04;100418.46;1657951;86;21117;-63
2023/06/12 05:47:44;;;;;;;5.33;1.65;;;;;;;14.23;69.25;100418.23;1658404;86;21104;-64
2023/06/12 05:50:13;;;;;;;2.87;1.40;;;;;;;14.29;69.24;100416.82;1651913;86;21515;-62
2023/06/12 05:52:42;;;;;;;5.25;1.92;;;;;;;14.34;69.11;100418.09;1660663;86;21029;-62
2023/06/12 05:55:11;;;;;;;3.67;1.62;;;;;;;14.39;68.76;100423.78;1661960;85;21049;-62
2023/06/12 05:57:40;;;;;;;5.08;1.80;;;;;;;14.44;68.99;100413.81;1640823;86;21068;-62
2023/06/12 06:00:12;;;;;;;5.90;1.82;;;;;;;14.50;68.73;100416.22;1660038;86;21060;-64
2023/06/12 06:02:45;;;;;;;4.83;1.95;;;;;;;14.58;68.85;100424.22;1658476;86;21056;-64
2023/06/12 06:05:16;;;;;;;7.15;2.72;;;;;;;14.65;69.03;100415.89;1649340;86;21433;-63
2023/06/12 06:07:49;;;;;;;2.95;1.67;;;;;;;14.71;68.93;100422.73;1657623;86;21401;-62
2023/06/12 06:10:18;;;;;;;6.28;1.70;;;;;;;14.76;68.16;100413.25;1658070;86;21053;-62
2023/06/12 06:12:47;;;;;;;4.60;1.90;;;;;;;14.78;67.72;100416.63;1658237;86;21484;-62
2023/06/12 06:15:16;;;;;;;4.25;1.72;;;;;;;14.79;67.52;100414.18;1658428;86;21049;-64
2023/06/12 06:17:46;;;;;;;3.65;1.80;;;;;;;14.80;67.17;100414.49;1657787;86;21029;-63
2023/06/12 06:20:17;;;;;;;6.92;1.85;;;;;;;14.81;66.79;100414.80;1657915;86;21566;-62
2023/06/12 06:22:45;;;;;;;3.17;1.60;;;;;;;14.80;65.97;100422.77;1658190;86;21072;-62
2023/06/12 06:25:15;;;;;;;6.03;1.70;;;;;;;14.76;65.56;100410.50;1651015;86;21585;-62
2023/06/12 06:27:45;;;;;;;4.22;2.00;;;;;;;14.74;65.81;100418.15;1674992;86;21024;-63
2023/06/12 06:30:15;;;;;;;3.17;1.62;;;;;;;14.76;65.89;100417.39;1645168;87;21099;-62
2023/06/12 06:32:44;;;;;;;9.93;1.80;;;;;;;14.76;65.61;100417.39;1655967;86;21092;-63
2023/06/12 06:35:13;;;;;;;4.65;1.75;;;;;;;14.77;65.76;100420.45;1642006;87;21045;-63
2023/06/12 06:37:42;;;;;;;4.65;2.20;;;;;;;14.77;65.53;100420.45;1675068;86;21051;-63
2023/06/12 06:40:14;;;;;;;2.45;1.52;;;;;;;14.76;65.61;100418.77;1641911;87;21067;-63
2023/06/12 06:42:44;;;;;;;4.58;1.50;;;;;;;14.75;65.49;100422.59;1674997;86;21064;-62
2023/06/12 06:45:13;;;;;;;4.60;1.50;;;;;;;14.73;65.28;100420.59;1674988;86;21071;-64
2023/06/12 06:47:44;;;;;;;5.30;1.90;;;;;;;14.68;65.38;100425.09;1675119;86;21091;-62
2023/06/12 06:50:13;;;;;;;3.70;1.75;;;;;;;14.66;65.75;100425.86;1675163;86;21018;-62
2023/06/12 06:52:42;;;;;;;4.58;1.60;;;;;;;14.67;65.90;100424.25;1674782;86;21079;-61
2023/06/12 06:55:11;;;;;;;4.83;1.77;;;;;;;14.68;65.69;100416.83;1674827;86;21032;-64
2023/06/12 06:57:42;;;;;;;3.67;2.15;;;;;;;14.67;65.55;100420.11;1675381;86;21028;-62
2023/06/12 07:00:12;;;;;;;5.85;2.20;;;;;;;14.67;65.67;100413.22;1674958;86;21679;-62
2023/06/12 07:02:45;;;;;;;3.92;1.52;;;;;;;14.67;65.68;100416.52;1674991;86;21112;-63
2023/06/12 07:05:16;;;;;;;4.08;1.50;;;;;;;14.71;65.74;100421.36;1642242;87;21040;-63
2023/06/12 07:07:46;;;;;;;4.03;1.87;;;;;;;14.76;65.71;100417.39;1675066;86;21498;-62
2023/06/12 07:10:19;;;;;;;3.75;1.75;;;;;;;14.83;65.84;100418.18;1642188;87;21593;-64
2023/06/12 07:12:56;;;;;;;3.55;1.60;;;;;;;14.96;66.00;100415.87;1642240;87;21059;-65
2023/06/12 07:15:20;;;;;;;5.25;1.70;;;;;;;15.10;65.45;100422.11;1674981;85;21067;-62
2023/06/12 07:17:48;;;;;;;5.00;1.80;;;;;;;15.20;65.10;100424.66;1675216;86;21452;-64
2023/06/12 07:20:19;;;;;;;4.22;1.70;;;;;;;15.30;64.54;100419.99;1642215;87;21115;-63
2023/06/12 07:22:48;;;;;;;3.25;1.62;;;;;;;15.38;64.07;100425.75;1675024;86;21484;-63
2023/06/12 07:25:17;;;;;;;5.25;1.70;;;;;;;15.43;63.73;100431.44;1664088;84;21092;-63
2023/06/12 07:27:46;;;;;;;5.00;1.60;;;;;;;15.45;63.79;100421.84;1658327;86;21029;-63
2023/06/12 07:30:15;;;;;;;5.40;1.95;;;;;;;15.50;63.59;100427.53;1658452;86;21472;-62
2023/06/12 07:32:44;;;;;;;4.30;1.80;;;;;;;15.57;63.61;100425.23;1658428;86;21120;-62
2023/06/12 07:35:14;;;;;;;2.65;1.77;;;;;;;15.62;62.93;100422.69;1658634;86;21060;-62
2023/06/12 07:37:45;;;;;;;7.65;3.70;;;;;;;15.66;63.00;100421.15;1658299;86;21128;-62
2023/06/12 07:40:14;;;;;;;3.22;1.90;;;;;;;15.65;62.18;100423.61;1658272;86;21096;-63
2023/06/12 07:42:45;;;;;;;7.40;2.25;;;;;;;15.65;62.64;100418.08;1638380;86;21088;-63
2023/06/12 07:45:14;;;;;;;6.35;2.40;;;;;;;15.67;62.63;100418.69;1657147;86;21096;-62
2023/06/12 07:47:45;;;;;;;5.03;2.00;;;;;;;15.71;62.79;100422.69;1658171;85;21587;-63
2023/06/12 07:50:15;;;;;;;5.30;2.30;;;;;;;15.79;62.88;100425.13;1658250;86;21521;-62
2023/06/12 07:52:44;;;;;;;4.70;1.70;;;;;;;15.89;62.43;100428.19;1637247;86;21108;-62
2023/06/12 07:55:14;;;;;;;5.50;2.00;;;;;;;15.96;62.36;100424.81;1658048;86;21041;-62
2023/06/12 07:57:44;;;;;;;5.55;1.60;;;;;;;16.04;61.96;100428.63;1658465;86;21097;-62
2023/06/12 08:00:14;;;;;;;4.92;1.85;;;;;;;16.08;61.03;100420.18;1656870;86;21069;-62
2023/06/12 08:02:58;;;;;;;3.80;1.85;;;;;;;16.08;61.09;100416.57;1658215;86;21077;-64
2023/06/12 08:05:20;;;;;;;7.95;1.72;;;;;;;16.08;61.40;100420.72;1657341;85;21101;-63
2023/06/12 08:07:50;;;;;;;7.40;2.00;;;;;;;16.13;61.48;100426.39;1658561;84;21505;-62
2023/06/12 08:10:19;;;;;;;6.83;2.40;;;;;;;16.16;61.37;100417.09;1657943;84;21049;-64
2023/06/12 08:12:49;;;;;;;3.95;1.70;;;;;;;16.20;61.49;100420.23;1658487;86;21053;-64
2023/06/12 08:15:19;;;;;;;2.65;1.80;;;;;;;16.28;61.31;100424.62;1658622;85;21553;-62
2023/06/12 08:17:51;;;;;;;3.92;2.05;;;;;;;16.35;61.35;100414.30;1658434;86;21116;-63
2023/06/12 08:20:21;;;;;;;4.70;2.22;;;;;;;16.40;60.72;100420.81;1658533;86;21033;-65
2023/06/12 08:22:50;;;;;;;7.53;2.20;;;;;;;16.41;60.47;100421.12;1636772;85;21136;-65
2023/06/12 08:25:20;;;;;;;5.15;1.90;;;;;;;16.39;60.23;100418.28;1613619;86;21199;-65
2023/06/12 08:27:54;;;;;;;6.22;1.77;;;;;;;16.33;60.01;100420.61;1652039;86;21091;-64
2023/06/12 08:30:23;;;;;;;4.17;1.45;;;;;;;16.22;60.22;100424.14;1679905;85;21057;-64
2023/06/12 08:32:54;;;;;;;5.35;1.80;;;;;;;16.11;60.85;100426.63;1679250;85;21052;-63
2023/06/12 08:35:23;;;;;;;5.08;2.00;;;;;;;16.05;61.15;100420.64;1694840;84;21070;-63
2023/06/12 08:37:52;;;;;;;5.17;2.20;;;;;;;15.99;61.47;100418.81;1680153;84;21502;-63
2023/06/12 08:40:22;;;;;;;6.65;1.67;;;;;;;15.95;61.95;100420.89;1682655;84;21104;-64
2023/06/12 08:42:51;;;;;;;5.33;1.72;;;;;;;15.97;62.19;100418.73;1691273;85;21043;-62
2023/06/12 08:45:23;;;;;;;6.30;1.67;;;;;;;16.04;62.51;100418.11;1686229;84;21152;-63
2023/06/12 08:47:52;;;;;;;3.37;1.50;;;;;;;16.15;62.60;100416.78;1660844;86;21045;-63
2023/06/12 08:50:20;;;;;;;2.33;1.80;;;;;;;16.29;62.62;100416.63;1640079;86;21517;-63
2023/06/12 08:52:51;;;;;;;6.97;2.00;;;;;;;16.40;62.30;100417.20;1676057;85;21061;-62
2023/06/12 08:55:20;;;;;;;4.58;1.87;;;;;;;16.48;62.20;100409.41;1708448;84;21044;-62
2023/06/12 08:57:49;;;;;;;8.45;2.00;;;;;;;16.55;61.49;100415.39;1710260;84;21082;-62
2023/06/12 09:00:20;;;;;;;4.58;1.60;;;;;;;16.60;61.38;100411.38;1623154;88;21056;-62
2023/06/12 09:02:52;;;;;;;4.70;2.00;;;;;;;16.61;61.52;100406.98;1606068;88;21153;-63
2023/06/12 09:05:37;;;;;;;2.95;1.80;;;;;;;16.63;61.19;100402.05;1644660;87;21047;-62
2023/06/12 09:08:15;;;;;;;7.03;2.50;;;;;;;16.64;61.56;100417.58;1646692;86;21151;-63
2023/06/12 09:10:46;;;;;;;4.97;1.82;;;;;;;16.69;61.76;100416.35;1651937;86;21088;-63
2023/06/12 09:13:15;;;;;;;4.55;2.00;;;;;;;16.72;62.41;100415.03;1709800;84;21027;-65
2023/06/12 09:15:52;;;;;;;5.30;2.02;;;;;;;16.76;62.59;100415.70;1706694;83;21008;-63
2023/06/12 09:18:22;;;;;;;8.08;2.30;;;;;;;16.80;62.29;100421.06;1704601;83;21117;-63
2023/06/12 09:20:52;;;;;;;6.17;3.15;;;;;;;16.83;62.30;100418.91;1704305;84;21091;-63
2023/06/12 09:23:22;;;;;;;4.95;2.80;;;;;;;16.79;61.94;100415.77;1704287;84;21075;-63
2023/06/12 09:25:57;;;;;;;5.90;2.05;;;;;;;16.74;62.48;100420.63;1706897;83;21056;-65
2023/06/12 09:28:38;;;;;;;4.95;2.00;;;;;;;16.73;62.54;100416.18;1667714;85;21063;-63
2023/06/12 09:31:08;;;;;;;4.70;1.90;;;;;;;16.72;62.78;100417.27;1649473;86;21079;-63
2023/06/12 09:33:41;;;;;;;5.08;2.00;;;;;;;16.67;62.44;100419.05;1637536;86;21036;-63
2023/06/12 09:36:18;;;;;;;3.75;1.90;;;;;;;16.62;62.67;100418.89;1597130;90;21506;-62
2023/06/12 09:39:05;;;;;;;3.50;1.90;;;;;;;16.56;62.88;100423.98;1583857;89;21118;-63
2023/06/12 09:41:36;;;;;;;4.15;1.75;;;;;;;16.53;63.26;100423.08;1605092;89;21121;-63
2023/06/12 09:44:06;;;;;;;4.92;1.87;;;;;;;16.50;63.22;100431.30;1597247;89;21035;-62
2023/06/12 09:46:37;;;;;;;4.35;1.55;;;;;;;16.48;63.43;100430.70;1615779;86;21023;-65
2023/06/12 09:49:06;;;;;;;5.00;1.77;;;;;;;16.45;63.33;100433.40;1613990;88;21087;-65
2023/06/12 09:51:36;;;;;;;6.87;1.70;;;;;;;16.43;63.27;100433.33;1576747;88;21114;-63
2023/06/12 09:54:05;;;;;;;4.92;1.62;;;;;;;16.37;63.34;100435.11;1627202;87;21087;-63
2023/06/12 09:56:34;;;;;;;5.95;2.47;;;;;;;16.33;63.56;100439.97;1633849;87;21550;-62
2023/06/12 09:59:03;;;;;;;4.58;2.42;;;;;;;16.28;63.80;100447.58;1627278;86;21515;-62
2023/06/12 10:01:39;;;;;;;3.10;2.15;;;;;;;16.25;63.64;100443.02;1667052;85;21115;-64
2023/06/12 10:04:07;;;;;;;5.70;1.67;;;;;;;16.23;63.38;100442.42;1667849;86;21460;-63
2023/06/12 10:06:38;;;;;;;4.83;1.80;;;;;;;16.18;63.43;100445.34;1668013;86;21107;-62
2023/06/12 10:09:08;;;;;;;2.85;2.10;;;;;;;16.17;63.75;100447.80;1667689;85;21472;-63
2023/06/12 10:11:37;;;;;;;1.92;1.62;;;;;;;16.17;63.71;100450.56;1649101;86;21115;-62
2023/06/12 10:14:06;;;;;;;4.05;1.85;;;;;;;16.16;63.19;100451.64;1649156;86;21103;-64
2023/06/12 10:16:35;;;;;;;3.55;2.10;;;;;;;16.10;63.18;100453.95;1648882;86;21226;-62
2023/06/12 10:19:06;;;;;;;5.95;2.98;;;;;;;16.06;63.32;100454.66;1667670;85;21076;-67
2023/06/12 10:21:36;;;;;;;3.45;1.85;;;;;;;16.06;63.78;100451.36;1649237;86;21048;-61
2023/06/12 10:24:07;;;;;;;4.30;1.80;;;;;;;16.09;63.93;100450.89;1667706;85;21448;-63
2023/06/12 10:27:00;;;;;;;5.90;1.80;;;;;;;16.06;63.41;100455.50;1647827;86;21245;-62
2023/06/12 10:29:36;;;;;;;5.28;1.80;;;;;;;16.04;63.63;100452.66;1664637;86;21493;-64
2023/06/12 10:32:08;;;;;;;4.55;2.37;;;;;;;16.04;63.78;100456.81;1669089;84;21026;-61
2023/06/12 10:34:42;;;;;;;5.83;1.92;;;;;;;16.05;63.70;100462.64;1600555;88;21064;-62
2023/06/12 10:37:32;;;;;;;7.25;1.82;;;;;;;16.06;63.84;100456.04;1646068;87;21460;-62
2023/06/12 10:40:12;;;;;;;4.22;2.02;;;;;;;16.04;63.38;100460.95;1645637;87;21122;-63
2023/06/12 10:43:02;;;;;;;3.45;1.80;;;;;;;15.98;63.48;100457.73;1646214;87;21487;-63
2023/06/12 10:45:34;;;;;;;5.55;4.42;;;;;;;15.97;63.63;100461.58;1657213;85;21046;-64
2023/06/12 10:48:09;;;;;;;6.53;2.10;;;;;;;15.94;63.61;100457.89;1672420;84;21032;-64
2023/06/12 10:50:57;;;;;;;6.25;1.95;;;;;;;15.90;63.85;100453.38;1672401;84;21061;-62
2023/06/12 10:53:31;;;;;;;7.05;2.08;;;;;;;15.93;64.19;100452.06;1672335;84;21501;-62
2023/06/12 10:56:07;;;;;;;3.92;1.95;;;;;;;15.95;64.20;100454.05;1679887;85;21049;-65
2023/06/12 10:58:42;;;;;;;5.50;2.02;;;;;;;15.96;64.19;100451.06;1676391;85;21665;-63
2023/06/12 11:01:15;;;;;;;4.72;2.10;;;;;;;15.96;64.02;100451.60;1672458;86;21073;-66
2023/06/12 11:03:46;;;;;;;4.90;2.02;;;;;;;15.96;64.12;100449.67;1672457;85;21092;-64
2023/06/12 11:06:20;;;;;;;4.58;2.25;;;;;;;15.97;64.45;100443.61;1672658;84;21058;-63
2023/06/12 11:08:50;;;;;;;7.28;2.47;;;;;;;16.00;64.55;100445.91;1672463;86;21088;-63
2023/06/12 11:11:21;;;;;;;3.17;1.90;;;;;;;16.01;64.13;100447.06;1653836;85;21153;-62
2023/06/12 11:13:51;;;;;;;4.30;2.17;;;;;;;16.01;64.09;100445.68;1672568;86;21037;-63
2023/06/12 11:16:22;;;;;;;5.95;3.58;;;;;;;16.05;64.16;100444.67;1672492;85;21073;-61
2023/06/12 11:19:05;;;;;;;9.48;2.58;;;;;;;16.06;64.05;100449.97;1672417;84;21117;-63
2023/06/12 11:21:39;;;;;;;8.00;2.10;;;;;;;16.08;63.85;100445.05;1672660;84;21054;-62
2023/06/12 11:24:10;;;;;;;5.45;2.25;;;;;;;16.09;63.81;100444.52;1678121;84;21064;-64
2023/06/12 11:26:40;;;;;;;3.77;1.87;;;;;;;16.11;63.99;100446.51;1672651;85;21097;-64
2023/06/12 11:29:17;;;;;;;4.17;2.10;;;;;;;16.12;63.65;100442.12;1646585;86;21075;-64
2023/06/12 11:31:52;;;;;;;7.22;3.25;;;;;;;16.11;63.79;100444.59;1669729;85;21083;-64
2023/06/12 11:34:24;;;;;;;4.78;2.08;;;;;;;16.13;64.00;100453.50;1619344;88;21059;-65
2023/06/12 11:36:54;;;;;;;7.20;2.35;;;;;;;16.15;63.86;100449.95;1620778;88;21496;-62
2023/06/12 11:39:26;;;;;;;6.05;2.50;;;;;;;16.16;63.80;100453.56;1620718;88;21503;-63
2023/06/12 11:41:57;;;;;;;5.17;2.15;;;;;;;16.17;64.12;100456.09;1590008;90;21100;-65